createdAt,value
2022-12-18T00:00:27.518Z,14.23
2022-12-18T00:02:00.174Z,15.65
2022-12-18T00:03:34.706Z,15.57
2022-12-18T00:05:08.747Z,17.13
2022-12-18T00:06:40.815Z,16.35
2022-12-18T00:08:14.762Z,16.33
2022-12-18T00:09:48.053Z,15.65
2022-12-18T00:11:22.933Z,15.25
2022-12-18T00:12:55.997Z,15.32
2022-12-18T00:14:30.421Z,15.80
2022-12-18T00:16:05.711Z,16.40
2022-12-18T00:17:38.815Z,16.60
2022-12-18T00:19:12.810Z,15.45
2022-12-18T00:20:45.854Z,15.88
2022-12-18T00:22:18.899Z,15.23
2022-12-18T00:23:52.679Z,15.70
2022-12-18T00:25:25.757Z,14.85
2022-12-18T00:26:58.797Z,14.57
2022-12-18T00:28:30.867Z,15.00
2022-12-18T00:30:06.134Z,15.93
2022-12-18T00:31:38.911Z,14.65
2022-12-18T00:33:12.053Z,14.07
2022-12-18T00:34:45.114Z,14.93
2022-12-18T00:36:19.999Z,14.30
2022-12-18T00:37:53.056Z,14.55
2022-12-18T00:39:26.121Z,15.52
2022-12-18T00:40:58.278Z,15.98
2022-12-18T00:42:49.080Z,15.98
2022-12-18T00:44:22.467Z,14.85
2022-12-18T00:45:56.989Z,14.27
2022-12-18T00:47:30.113Z,13.95
2022-12-18T00:49:03.461Z,13.52
2022-12-18T00:50:36.567Z,13.52
2022-12-18T00:52:08.655Z,14.32
2022-12-18T00:53:42.154Z,13.35
2022-12-18T00:55:15.931Z,14.05
2022-12-18T00:56:49.987Z,13.05
2022-12-18T00:58:22.870Z,12.93
2022-12-18T00:59:55.926Z,13.45
2022-12-18T01:01:31.823Z,12.38
2022-12-18T01:03:06.419Z,12.70
2022-12-18T01:04:39.699Z,13.20
2022-12-18T01:06:16.027Z,13.80
2022-12-18T01:07:49.443Z,13.15
2022-12-18T01:09:22.468Z,12.50
2022-12-18T01:10:55.528Z,13.73
2022-12-18T01:12:27.662Z,12.65
2022-12-18T01:14:02.026Z,12.45
2022-12-18T01:15:35.053Z,13.35
2022-12-18T01:17:09.522Z,12.18
2022-12-18T01:18:42.650Z,13.05
2022-12-18T01:20:14.830Z,13.40
2022-12-18T01:21:47.917Z,12.40
2022-12-18T01:23:20.022Z,12.10
2022-12-18T01:24:53.866Z,11.80
2022-12-18T01:26:30.502Z,12.30
2022-12-18T01:28:02.851Z,11.63
2022-12-18T01:29:35.946Z,12.45
2022-12-18T01:31:17.873Z,12.35
2022-12-18T01:32:52.333Z,9.80
2022-12-18T01:34:25.277Z,10.50
2022-12-18T01:35:58.392Z,10.68
2022-12-18T01:37:31.498Z,9.88
2022-12-18T01:39:06.495Z,10.73
2022-12-18T01:40:39.656Z,10.63
2022-12-18T01:42:14.359Z,10.52
2022-12-18T01:43:50.420Z,9.38
2022-12-18T01:45:29.035Z,10.10
2022-12-18T01:47:01.443Z,10.13
2022-12-18T01:48:35.868Z,10.13
2022-12-18T01:50:13.248Z,9.80
2022-12-18T01:51:46.331Z,9.45
2022-12-18T01:53:22.957Z,9.38
2022-12-18T01:54:56.655Z,9.32
2022-12-18T01:56:30.101Z,8.77
2022-12-18T01:58:03.378Z,9.38
2022-12-18T01:59:36.691Z,8.88
2022-12-18T02:01:10.247Z,9.32
2022-12-18T02:02:43.162Z,9.23
2022-12-18T02:04:23.890Z,9.05
2022-12-18T02:06:08.072Z,9.60
2022-12-18T02:07:55.547Z,8.98
2022-12-18T02:09:34.149Z,9.25
2022-12-18T02:11:11.653Z,8.98
2022-12-18T02:12:49.391Z,9.32
2022-12-18T02:14:30.282Z,8.32
2022-12-18T02:16:09.137Z,8.18
2022-12-18T02:17:48.773Z,8.05
2022-12-18T02:19:39.805Z,8.93
2022-12-18T02:21:23.721Z,8.30
2022-12-18T02:23:08.875Z,8.95
2022-12-18T02:24:53.428Z,7.90
2022-12-18T02:26:36.563Z,9.13
2022-12-18T02:28:14.620Z,9.70
2022-12-18T02:29:58.020Z,10.93
2022-12-18T02:31:37.719Z,9.82
2022-12-18T02:33:12.803Z,10.52
2022-12-18T02:34:47.621Z,9.60
2022-12-18T02:36:23.957Z,8.93
2022-12-18T02:37:57.953Z,9.02
2022-12-18T02:39:32.928Z,8.82
2022-12-18T02:41:10.177Z,9.80
2022-12-18T02:42:45.328Z,9.40
2022-12-18T02:44:21.870Z,8.70
2022-12-18T02:45:58.139Z,9.43
2022-12-18T02:47:35.932Z,8.70
2022-12-18T02:49:21.501Z,8.70
2022-12-18T02:51:02.508Z,8.27
2022-12-18T02:52:42.529Z,9.27
2022-12-18T02:54:28.545Z,8.85
2022-12-18T02:56:07.661Z,8.82
2022-12-18T02:57:44.043Z,7.50
2022-12-18T02:59:23.175Z,7.45
2022-12-18T03:01:05.316Z,8.50
2022-12-18T03:02:46.821Z,7.53
2022-12-18T03:04:24.515Z,7.32
2022-12-18T03:06:00.979Z,7.18
2022-12-18T03:07:39.135Z,8.25
2022-12-18T03:09:19.696Z,7.78
2022-12-18T03:10:57.780Z,8.00
2022-12-18T03:12:33.100Z,7.47
2022-12-18T03:14:09.676Z,8.20
2022-12-18T03:15:47.531Z,7.68
2022-12-18T03:17:24.504Z,7.63
2022-12-18T03:19:01.042Z,7.38
2022-12-18T03:20:36.976Z,7.60
2022-12-18T03:22:10.161Z,6.53
2022-12-18T03:23:52.877Z,6.82
2022-12-18T03:25:27.907Z,7.32
2022-12-18T03:27:04.922Z,6.97
2022-12-18T03:28:41.738Z,6.88
2022-12-18T03:30:16.013Z,6.82
2022-12-18T03:31:57.682Z,6.90
2022-12-18T03:33:39.827Z,6.63
2022-12-18T03:35:17.398Z,7.03
2022-12-18T03:36:50.536Z,7.40
2022-12-18T03:38:23.868Z,7.07
2022-12-18T03:39:59.022Z,6.55
2022-12-18T03:41:35.209Z,7.43
2022-12-18T03:43:38.666Z,7.35
2022-12-18T03:45:20.735Z,6.78
2022-12-18T03:47:00.458Z,6.68
2022-12-18T03:48:40.200Z,6.55
2022-12-18T03:50:21.965Z,7.50
2022-12-18T03:52:02.254Z,7.60
2022-12-18T03:53:43.823Z,6.45
2022-12-18T03:55:19.621Z,7.75
2022-12-18T03:57:00.409Z,7.15
2022-12-18T03:58:37.717Z,7.40
2022-12-18T04:00:32.905Z,8.52
2022-12-18T04:02:15.804Z,7.60
2022-12-18T04:03:50.236Z,7.70
2022-12-18T04:05:27.832Z,8.45
2022-12-18T04:07:01.271Z,7.28
2022-12-18T04:08:35.729Z,6.78
2022-12-18T04:10:14.989Z,8.05
2022-12-18T04:11:48.138Z,7.30
2022-12-18T04:13:27.017Z,6.90
2022-12-18T04:15:00.186Z,7.65
2022-12-18T04:16:33.285Z,7.80
2022-12-18T04:18:11.206Z,7.85
2022-12-18T04:19:47.890Z,7.32
2022-12-18T04:21:20.670Z,7.53
2022-12-18T04:22:55.140Z,7.80
2022-12-18T04:24:28.313Z,7.05
2022-12-18T04:26:10.469Z,7.53
2022-12-18T04:27:58.925Z,5.80
2022-12-18T04:29:32.033Z,6.65
2022-12-18T04:31:05.728Z,6.50
2022-12-18T04:32:38.001Z,6.55
2022-12-18T04:34:12.435Z,6.20
2022-12-18T04:35:50.449Z,6.70
2022-12-18T04:37:24.336Z,7.07
2022-12-18T04:38:57.960Z,7.80
2022-12-18T04:40:31.667Z,7.60
2022-12-18T04:42:14.533Z,6.88
2022-12-18T04:43:47.679Z,7.55
2022-12-18T04:45:20.768Z,6.70
2022-12-18T04:46:52.873Z,7.22
2022-12-18T04:48:26.057Z,7.15
2022-12-18T04:50:00.513Z,7.65
2022-12-18T04:51:32.702Z,7.72
2022-12-18T04:53:05.821Z,6.97
2022-12-18T04:54:38.869Z,7.55
2022-12-18T04:56:14.395Z,7.63
2022-12-18T04:57:46.518Z,6.22
2022-12-18T04:59:19.592Z,7.30
2022-12-18T05:00:51.666Z,6.65
2022-12-18T05:02:24.907Z,7.40
2022-12-18T05:03:58.052Z,7.00
2022-12-18T05:05:32.739Z,7.25
2022-12-18T05:07:06.336Z,6.43
2022-12-18T05:08:39.453Z,6.90
2022-12-18T05:10:12.675Z,7.47
2022-12-18T05:11:45.754Z,7.43
2022-12-18T05:13:19.427Z,6.80
2022-12-18T05:14:52.485Z,6.85
2022-12-18T05:16:25.607Z,6.95
2022-12-18T05:17:59.425Z,7.00
2022-12-18T05:19:32.626Z,6.93
2022-12-18T05:21:07.718Z,7.35
2022-12-18T05:22:40.768Z,7.35
2022-12-18T05:24:13.845Z,6.65
2022-12-18T05:25:52.453Z,6.65
2022-12-18T05:27:25.989Z,7.80
2022-12-18T05:28:59.202Z,7.65
2022-12-18T05:30:31.289Z,8.13
2022-12-18T05:32:04.494Z,8.45
2022-12-18T05:33:38.417Z,7.10
2022-12-18T05:35:12.895Z,7.93
2022-12-18T05:36:46.357Z,7.55
2022-12-18T05:38:19.556Z,7.78
2022-12-18T05:39:52.668Z,7.47
2022-12-18T05:41:24.735Z,8.15
2022-12-18T05:42:57.811Z,6.82
2022-12-18T05:44:30.869Z,7.40
2022-12-18T05:46:06.575Z,8.30
2022-12-18T05:47:39.699Z,7.78
2022-12-18T05:49:12.744Z,7.88
2022-12-18T05:50:46.620Z,7.75
2022-12-18T05:52:21.079Z,8.45
2022-12-18T05:53:54.282Z,8.93
2022-12-18T05:55:27.495Z,7.57
2022-12-18T05:56:59.842Z,8.00
2022-12-18T05:58:33.943Z,8.65
2022-12-18T06:00:08.851Z,8.43
2022-12-18T06:01:45.384Z,7.65
2022-12-18T06:03:18.609Z,7.95
2022-12-18T06:04:51.716Z,8.90
2022-12-18T06:06:26.967Z,7.25
2022-12-18T06:08:00.597Z,8.20
2022-12-18T06:09:34.049Z,8.85
2022-12-18T06:11:06.133Z,8.43
2022-12-18T06:12:39.200Z,8.88
2022-12-18T06:14:12.472Z,8.05
2022-12-18T06:15:45.788Z,8.55
2022-12-18T06:17:19.210Z,8.00
2022-12-18T06:18:51.287Z,9.07
2022-12-18T06:20:26.920Z,8.43
2022-12-18T06:22:03.655Z,8.52
2022-12-18T06:23:39.181Z,8.52
2022-12-18T06:25:12.798Z,8.55
2022-12-18T06:26:46.155Z,9.30
2022-12-18T06:28:18.245Z,8.57
2022-12-18T06:29:51.496Z,8.48
2022-12-18T06:31:24.804Z,9.13
2022-12-18T06:32:57.955Z,8.73
2022-12-18T06:34:31.007Z,8.48
2022-12-18T06:36:05.658Z,8.68
2022-12-18T06:37:38.847Z,8.20
2022-12-18T06:39:13.298Z,8.88
2022-12-18T06:40:46.471Z,8.45
2022-12-18T06:42:19.553Z,8.95
2022-12-18T06:43:59.580Z,8.80
2022-12-18T06:45:33.180Z,8.50
2022-12-18T06:47:06.526Z,8.38
2022-12-18T06:48:39.799Z,8.90
2022-12-18T06:50:13.764Z,9.02
2022-12-18T06:51:46.838Z,9.10
2022-12-18T06:53:19.595Z,8.98
2022-12-18T06:54:53.991Z,8.52
2022-12-18T06:56:27.118Z,9.75
2022-12-18T06:57:59.186Z,9.05
2022-12-18T06:59:32.246Z,10.13
2022-12-18T07:01:07.875Z,8.85
2022-12-18T07:02:41.456Z,8.77
2022-12-18T07:04:14.724Z,9.82
2022-12-18T07:05:47.805Z,10.68
2022-12-18T07:07:21.927Z,8.95
2022-12-18T07:08:56.380Z,9.45
2022-12-18T07:10:30.841Z,9.40
2022-12-18T07:12:05.913Z,9.25
2022-12-18T07:13:39.466Z,10.00
2022-12-18T07:15:12.949Z,9.80
2022-12-18T07:16:46.099Z,10.05
2022-12-18T07:18:19.166Z,9.93
2022-12-18T07:19:52.242Z,9.88
2022-12-18T07:21:26.497Z,9.55
2022-12-18T07:22:59.550Z,9.55
2022-12-18T07:24:31.616Z,9.88
2022-12-18T07:26:07.799Z,9.63
2022-12-18T07:27:40.916Z,9.70
2022-12-18T07:29:14.232Z,9.52
2022-12-18T07:30:47.272Z,10.82
2022-12-18T07:32:20.820Z,9.50
2022-12-18T07:33:54.393Z,10.82
2022-12-18T07:35:31.385Z,10.65
2022-12-18T07:37:04.485Z,10.52
2022-12-18T07:38:36.877Z,10.05
2022-12-18T07:40:11.454Z,10.85
2022-12-18T07:42:06.543Z,10.63
2022-12-18T07:43:43.989Z,10.75
2022-12-18T07:45:17.472Z,10.98
2022-12-18T07:46:51.191Z,9.93
2022-12-18T07:48:24.370Z,9.80
2022-12-18T07:49:57.551Z,9.95
2022-12-18T07:51:31.445Z,9.35
2022-12-18T07:53:05.758Z,9.52
2022-12-18T07:54:38.859Z,10.23
2022-12-18T07:56:31.217Z,10.23
2022-12-18T07:58:06.462Z,9.20
2022-12-18T07:59:39.574Z,10.45
2022-12-18T08:01:13.992Z,10.20
2022-12-18T08:02:47.312Z,10.10
2022-12-18T08:04:21.761Z,9.68
2022-12-18T08:05:54.972Z,9.95
2022-12-18T08:07:28.035Z,11.30
2022-12-18T08:09:01.191Z,12.27
2022-12-18T08:10:34.681Z,12.95
2022-12-18T08:12:08.325Z,13.70
2022-12-18T08:13:42.930Z,13.73
2022-12-18T08:15:16.393Z,14.73
2022-12-18T08:16:49.523Z,14.20
2022-12-18T08:18:22.660Z,14.85
2022-12-18T08:19:55.730Z,15.00
2022-12-18T08:21:31.196Z,15.82
2022-12-18T08:23:04.283Z,15.63
2022-12-18T08:24:37.357Z,15.05
2022-12-18T08:26:10.908Z,14.88
2022-12-18T08:27:43.997Z,15.30
2022-12-18T08:29:21.561Z,15.00
2022-12-18T08:30:55.141Z,15.57
2022-12-18T08:32:29.415Z,15.40
2022-12-18T08:34:02.554Z,15.77
2022-12-18T08:35:44.075Z,15.70
2022-12-18T08:37:18.627Z,15.13
2022-12-18T08:38:52.252Z,15.07
2022-12-18T08:40:25.970Z,16.23
2022-12-18T08:42:16.517Z,15.65
2022-12-18T08:44:07.113Z,15.70
2022-12-18T08:45:41.586Z,14.43
2022-12-18T08:47:14.698Z,15.18
2022-12-18T08:48:47.782Z,14.80
2022-12-18T08:50:21.090Z,14.45
2022-12-18T08:51:58.065Z,15.07
2022-12-18T08:53:35.493Z,13.10
2022-12-18T08:55:10.559Z,14.80
2022-12-18T08:56:43.765Z,14.98
2022-12-18T08:58:16.841Z,15.25
2022-12-18T08:59:50.193Z,15.18
2022-12-18T09:01:25.192Z,15.68
2022-12-18T09:02:58.537Z,15.93
2022-12-18T09:04:31.685Z,15.55
2022-12-18T09:06:05.105Z,15.20
2022-12-18T09:07:38.322Z,14.93
2022-12-18T09:09:12.632Z,15.40
2022-12-18T09:10:46.743Z,16.23
2022-12-18T09:12:19.886Z,15.65
2022-12-18T09:13:54.756Z,16.20
2022-12-18T09:15:27.948Z,15.73
2022-12-18T09:17:02.409Z,16.10
2022-12-18T09:18:35.570Z,16.63
2022-12-18T09:20:09.914Z,17.65
2022-12-18T09:21:47.807Z,18.15
2022-12-18T09:23:22.044Z,18.33
2022-12-18T09:24:55.128Z,18.08
2022-12-18T09:26:28.979Z,18.52
2022-12-18T09:28:02.916Z,18.40
2022-12-18T09:29:36.228Z,18.65
2022-12-18T09:31:10.760Z,18.45
2022-12-18T09:32:45.239Z,18.85
2022-12-18T09:34:18.878Z,18.38
2022-12-18T09:35:52.000Z,17.77
2022-12-18T09:37:25.071Z,19.27
2022-12-18T09:38:58.177Z,19.77
2022-12-18T09:40:36.900Z,18.98
2022-12-18T09:42:20.492Z,18.85
2022-12-18T09:43:58.049Z,18.48
2022-12-18T09:45:32.510Z,18.92
2022-12-18T09:47:11.999Z,17.95
2022-12-18T09:48:49.783Z,18.00
2022-12-18T09:50:28.518Z,18.52
2022-12-18T09:52:06.692Z,17.13
2022-12-18T09:53:42.750Z,17.55
2022-12-18T09:55:22.844Z,18.05
2022-12-18T09:56:55.974Z,17.73
2022-12-18T09:58:33.681Z,17.90
2022-12-18T10:00:21.197Z,19.27
2022-12-18T10:01:54.442Z,16.40
2022-12-18T10:03:28.488Z,17.70
2022-12-18T10:05:13.725Z,17.42
2022-12-18T10:06:53.554Z,17.77
2022-12-18T10:08:35.928Z,17.63
2022-12-18T10:10:18.804Z,18.77
2022-12-18T10:11:59.968Z,18.02
2022-12-18T10:13:40.274Z,17.27
2022-12-18T10:15:21.972Z,17.63
2022-12-18T10:17:03.092Z,16.40
2022-12-18T10:18:51.111Z,16.02
2022-12-18T10:20:32.295Z,16.83
2022-12-18T10:22:16.083Z,17.52
2022-12-18T10:23:57.518Z,17.52
2022-12-18T10:25:36.654Z,17.73
2022-12-18T10:27:15.820Z,16.77
2022-12-18T10:28:49.087Z,16.65
2022-12-18T10:30:25.285Z,18.02
2022-12-18T10:31:58.324Z,17.50
2022-12-18T10:33:33.153Z,16.77
2022-12-18T10:35:07.189Z,16.65
2022-12-18T10:36:41.780Z,17.73
2022-12-18T10:38:26.166Z,15.38
2022-12-18T10:40:15.431Z,17.52
2022-12-18T10:42:13.000Z,18.15
2022-12-18T10:43:46.213Z,18.55
2022-12-18T10:45:19.728Z,17.85
2022-12-18T10:46:57.863Z,18.38
2022-12-18T10:48:32.146Z,17.48
2022-12-18T10:50:06.175Z,18.27
2022-12-18T10:51:41.405Z,18.52
2022-12-18T10:53:22.266Z,19.80
2022-12-18T10:54:59.296Z,16.73
2022-12-18T10:56:35.384Z,16.15
2022-12-18T10:58:27.122Z,19.52
2022-12-18T11:00:02.429Z,17.52
2022-12-18T11:01:49.867Z,18.05
2022-12-18T11:03:33.360Z,16.83
2022-12-18T11:05:26.399Z,17.42
2022-12-18T11:07:03.892Z,17.67
2022-12-18T11:08:37.686Z,16.25
2022-12-18T11:10:18.731Z,15.15
2022-12-18T11:11:53.331Z,16.58
2022-12-18T11:13:28.656Z,15.80
2022-12-18T11:15:01.848Z,17.65
2022-12-18T11:16:38.461Z,17.77
2022-12-18T11:18:21.789Z,16.10
2022-12-18T11:19:56.515Z,15.75
2022-12-18T11:21:29.615Z,16.05
2022-12-18T11:23:06.763Z,15.30
2022-12-18T11:24:39.851Z,15.52
2022-12-18T11:26:12.993Z,15.65
2022-12-18T11:27:50.938Z,15.82
2022-12-18T11:29:30.912Z,16.63
2022-12-18T11:31:23.914Z,15.98
2022-12-18T11:33:02.563Z,15.63
2022-12-18T11:34:36.190Z,14.80
2022-12-18T11:36:11.480Z,16.08
2022-12-18T11:37:48.256Z,16.52
2022-12-18T11:39:30.024Z,16.13
2022-12-18T11:41:09.336Z,16.17
2022-12-18T11:42:50.343Z,14.40
2022-12-18T11:44:28.603Z,16.08
2022-12-18T11:46:06.331Z,14.98
2022-12-18T11:47:46.147Z,14.32
2022-12-18T11:49:25.168Z,15.23
2022-12-18T11:51:00.318Z,14.55
2022-12-18T11:52:39.165Z,17.17
2022-12-18T11:54:15.666Z,16.80
2022-12-18T11:55:58.430Z,14.90
2022-12-18T11:57:39.113Z,14.88
2022-12-18T11:59:23.604Z,14.52
2022-12-18T12:01:05.485Z,15.07
2022-12-18T12:02:54.564Z,14.68
2022-12-18T12:05:03.209Z,15.05
2022-12-18T12:06:43.701Z,14.38
2022-12-18T12:08:28.432Z,15.18
2022-12-18T12:10:12.368Z,15.27
2022-12-18T12:11:59.539Z,14.73
2022-12-18T12:13:47.164Z,15.80
2022-12-18T12:15:32.100Z,16.05
2022-12-18T12:17:14.292Z,15.60
2022-12-18T12:18:58.540Z,15.07
2022-12-18T12:20:44.219Z,15.23
2022-12-18T12:22:26.449Z,15.68
2022-12-18T12:24:06.135Z,15.20
2022-12-18T12:25:46.271Z,15.48
2022-12-18T12:27:28.804Z,13.75
2022-12-18T12:29:21.370Z,15.23
2022-12-18T12:31:07.555Z,12.35
2022-12-18T12:33:01.285Z,14.30
2022-12-18T12:34:43.455Z,15.40
2022-12-18T12:36:24.665Z,14.25
2022-12-18T12:41:38.173Z,15.68
2022-12-18T12:43:27.881Z,15.45
2022-12-18T12:45:03.741Z,14.10
2022-12-18T12:46:41.707Z,15.77
2022-12-18T12:48:21.282Z,13.15
2022-12-18T12:49:56.398Z,16.17
2022-12-18T12:51:32.191Z,15.55
2022-12-18T12:53:13.593Z,16.27
2022-12-18T12:54:48.498Z,15.65
2022-12-18T12:56:23.365Z,15.93
2022-12-18T12:58:07.783Z,16.20
2022-12-18T12:59:51.769Z,15.32
2022-12-18T13:01:30.839Z,16.35
2022-12-18T13:03:14.364Z,14.27
2022-12-18T13:04:54.461Z,14.70
2022-12-18T13:06:44.395Z,16.15
2022-12-18T13:08:26.541Z,15.18
2022-12-18T13:10:26.959Z,12.32
2022-12-18T13:12:37.773Z,14.88
2022-12-18T13:14:24.538Z,15.75
2022-12-18T13:16:11.643Z,16.55
2022-12-18T13:17:44.823Z,15.75
2022-12-18T13:19:26.377Z,15.88
2022-12-18T13:21:23.335Z,16.58
2022-12-18T13:22:57.010Z,13.70
2022-12-18T13:24:33.888Z,16.00
2022-12-18T13:26:33.186Z,15.73
2022-12-18T13:28:10.148Z,14.90
2022-12-18T13:29:44.975Z,17.05
2022-12-18T13:32:09.280Z,17.25
2022-12-18T13:34:23.936Z,13.63
2022-12-18T13:35:41.923Z,17.85
2022-12-18T13:37:44.063Z,18.20
2022-12-18T13:39:30.319Z,15.80
2022-12-18T13:41:25.267Z,17.35
2022-12-18T13:43:15.647Z,16.80
2022-12-18T13:44:49.727Z,17.15
2022-12-18T13:46:26.692Z,16.88
2022-12-18T13:48:00.332Z,12.13
2022-12-18T13:49:41.345Z,16.50
2022-12-18T13:51:19.778Z,16.38
2022-12-18T13:52:54.512Z,15.35
2022-12-18T13:54:32.579Z,14.27
2022-12-18T13:56:07.170Z,13.43
2022-12-18T13:57:41.739Z,16.98
2022-12-18T13:59:18.774Z,16.05
2022-12-18T14:00:55.300Z,13.77
2022-12-18T14:02:31.269Z,14.93
2022-12-18T14:04:18.666Z,14.25
2022-12-18T14:05:58.661Z,15.55
2022-12-18T14:07:34.643Z,15.80
2022-12-18T14:09:21.338Z,13.43
2022-12-18T14:10:55.060Z,12.85
2022-12-18T14:12:48.148Z,15.55
2022-12-18T14:14:22.782Z,15.52
2022-12-18T14:15:59.215Z,14.65
2022-12-18T14:17:38.274Z,14.57
2022-12-18T14:19:15.961Z,12.52
2022-12-18T14:20:52.820Z,15.63
2022-12-18T14:22:30.489Z,14.63
2022-12-18T14:24:17.579Z,14.65
2022-12-18T14:25:52.957Z,15.70
2022-12-18T14:27:28.329Z,13.00
2022-12-18T14:29:19.551Z,16.02
2022-12-18T14:30:54.371Z,14.93
2022-12-18T14:32:27.491Z,15.95
2022-12-18T14:34:02.453Z,16.17
2022-12-18T14:35:36.777Z,14.48
2022-12-18T14:37:12.344Z,15.13
2022-12-18T14:38:49.653Z,15.57
2022-12-18T14:40:22.851Z,14.25
2022-12-18T14:41:56.106Z,12.95
2022-12-18T14:43:30.661Z,13.35
2022-12-18T14:45:41.405Z,15.35
2022-12-18T14:47:17.972Z,14.13
2022-12-18T14:48:51.098Z,14.95
2022-12-18T14:50:25.746Z,16.50
2022-12-18T14:52:02.598Z,15.85
2022-12-18T14:53:39.491Z,15.25
2022-12-18T14:55:18.004Z,14.00
2022-12-18T14:56:53.226Z,15.30
2022-12-18T14:58:29.454Z,15.20
2022-12-18T15:00:07.751Z,15.50
2022-12-18T15:01:49.570Z,14.45
2022-12-18T15:03:23.875Z,16.67
2022-12-18T15:05:07.232Z,14.88
2022-12-18T15:06:44.530Z,14.45
2022-12-18T15:08:36.205Z,14.80
2022-12-18T15:10:14.539Z,15.95
2022-12-18T15:11:48.937Z,14.70
2022-12-18T15:13:25.363Z,15.30
2022-12-18T15:14:58.853Z,14.90
2022-12-18T15:16:32.057Z,15.02
2022-12-18T15:18:07.805Z,15.48
2022-12-18T15:19:42.541Z,16.50
2022-12-18T15:21:20.022Z,15.23
2022-12-18T15:22:54.911Z,15.75
2022-12-18T15:24:32.658Z,15.35
2022-12-18T15:26:09.585Z,13.93
2022-12-18T15:27:48.867Z,15.43
2022-12-18T15:29:23.713Z,16.17
2022-12-18T15:31:08.866Z,14.85
2022-12-18T15:32:42.451Z,16.63
2022-12-18T15:34:21.546Z,16.58
2022-12-18T15:35:59.467Z,16.08
2022-12-18T15:37:32.757Z,16.45
2022-12-18T15:39:07.627Z,16.88
2022-12-18T15:40:41.440Z,17.73
2022-12-18T15:42:32.054Z,16.27
2022-12-18T15:44:23.039Z,15.50
2022-12-18T15:45:56.187Z,16.90
2022-12-18T15:47:29.336Z,17.33
2022-12-18T15:49:04.583Z,18.10
2022-12-18T15:50:37.742Z,16.20
2022-12-18T15:52:26.807Z,16.85
2022-12-18T15:54:04.639Z,15.65
2022-12-18T15:56:00.986Z,15.75
2022-12-18T15:57:33.834Z,16.27
2022-12-18T15:59:10.776Z,15.52
2022-12-18T16:00:43.945Z,15.57
2022-12-18T16:02:23.778Z,15.52
2022-12-18T16:03:57.509Z,16.02
2022-12-18T16:05:32.787Z,17.17
2022-12-18T16:07:14.976Z,17.25
2022-12-18T16:08:49.538Z,16.38
2022-12-18T16:10:22.079Z,15.50
2022-12-18T16:11:56.903Z,15.52
2022-12-18T16:13:32.771Z,16.00
2022-12-18T16:15:07.760Z,16.33
2022-12-18T16:16:42.536Z,15.60
2022-12-18T16:18:15.708Z,15.90
2022-12-18T16:19:49.939Z,16.33
2022-12-18T16:21:22.994Z,15.00
2022-12-18T16:22:58.317Z,15.95
2022-12-18T16:24:34.055Z,16.92
2022-12-18T16:26:07.275Z,13.65
2022-12-18T16:27:41.950Z,14.90
2022-12-18T16:29:16.995Z,15.65
2022-12-18T16:30:50.120Z,15.90
2022-12-18T16:32:24.537Z,15.50
2022-12-18T16:34:15.267Z,18.05
2022-12-18T16:35:54.044Z,16.58
2022-12-18T16:37:27.755Z,15.65
2022-12-18T16:39:00.861Z,15.32
2022-12-18T16:40:56.831Z,15.38
2022-12-18T16:42:29.881Z,14.55
2022-12-18T16:44:04.921Z,15.30
2022-12-18T16:45:38.487Z,16.63
2022-12-18T16:47:15.004Z,17.45
2022-12-18T16:48:48.487Z,16.33
2022-12-18T16:50:21.665Z,17.95
2022-12-18T16:51:54.783Z,14.55
2022-12-18T16:53:27.889Z,12.98
2022-12-18T16:55:01.877Z,14.77
2022-12-18T16:56:35.569Z,13.50
2022-12-18T16:58:08.698Z,16.73
2022-12-18T16:59:43.287Z,16.85
2022-12-18T17:01:16.495Z,15.55
2022-12-18T17:02:49.902Z,15.57
2022-12-18T17:04:23.238Z,17.15
2022-12-18T17:05:56.580Z,16.25
2022-12-18T17:07:29.859Z,16.05
2022-12-18T17:09:06.478Z,17.27
2022-12-18T17:10:39.538Z,18.10
2022-12-18T17:12:13.244Z,15.30
2022-12-18T17:13:46.303Z,16.92
2022-12-18T17:15:20.936Z,15.75
2022-12-18T17:17:19.899Z,16.35
2022-12-18T17:18:48.282Z,15.20
2022-12-18T17:20:21.399Z,16.92
2022-12-18T17:21:54.885Z,15.15
2022-12-18T17:23:29.035Z,14.77
2022-12-18T17:25:02.245Z,17.13
2022-12-18T17:26:35.362Z,14.45
2022-12-18T17:28:08.434Z,16.33
2022-12-18T17:29:47.230Z,15.93
2022-12-18T17:31:25.815Z,15.32
2022-12-18T17:32:58.910Z,14.35
2022-12-18T17:34:31.999Z,16.38
2022-12-18T17:36:05.698Z,14.88
2022-12-18T17:37:38.849Z,13.00
2022-12-18T17:39:18.542Z,16.05
2022-12-18T17:40:52.155Z,15.82
2022-12-18T17:42:26.283Z,17.02
2022-12-18T17:44:01.394Z,16.33
2022-12-18T17:45:37.275Z,15.57
2022-12-18T17:47:12.959Z,16.02
2022-12-18T17:48:46.413Z,16.67
2022-12-18T17:50:19.584Z,17.08
2022-12-18T17:51:53.747Z,14.55
2022-12-18T17:53:26.892Z,14.60
2022-12-18T17:55:00.015Z,16.83
2022-12-18T17:56:33.199Z,14.73
2022-12-18T17:58:07.407Z,12.88
2022-12-18T17:59:40.445Z,14.00
2022-12-18T18:01:15.637Z,13.25
2022-12-18T18:02:50.722Z,15.75
2022-12-18T18:04:23.992Z,16.35
2022-12-18T18:05:57.618Z,14.98
2022-12-18T18:07:30.758Z,14.82
2022-12-18T18:09:04.040Z,12.77
2022-12-18T18:10:38.533Z,15.48
2022-12-18T18:12:28.961Z,16.65
2022-12-18T18:14:01.545Z,14.75
2022-12-18T18:15:34.821Z,15.02
2022-12-18T18:17:10.834Z,14.02
2022-12-18T18:18:45.299Z,14.30
2022-12-18T18:20:22.491Z,14.30
2022-12-18T18:21:55.922Z,14.00
2022-12-18T18:23:31.174Z,12.43
2022-12-18T18:25:04.561Z,12.85
2022-12-18T18:26:42.492Z,12.45
2022-12-18T18:28:15.717Z,13.95
2022-12-18T18:29:48.961Z,13.05
2022-12-18T18:31:22.133Z,10.95
2022-12-18T18:32:58.006Z,12.32
2022-12-18T18:34:34.508Z,12.00
2022-12-18T18:36:11.530Z,11.40
2022-12-18T18:37:44.614Z,12.35
2022-12-18T18:39:18.435Z,11.77
2022-12-18T18:41:00.052Z,12.77
2022-12-18T18:42:33.144Z,11.27
2022-12-18T18:44:06.628Z,12.30
2022-12-18T18:45:39.854Z,12.63
2022-12-18T18:47:15.078Z,12.57
2022-12-18T18:48:48.149Z,11.85
2022-12-18T18:50:22.809Z,11.82
2022-12-18T18:51:56.679Z,11.82
2022-12-18T18:53:30.217Z,11.57
2022-12-18T18:55:13.353Z,11.25
2022-12-18T18:58:40.374Z,11.95
2022-12-18T19:00:15.352Z,12.65
2022-12-18T19:01:50.300Z,14.00
2022-12-18T19:03:25.580Z,13.07
2022-12-18T19:04:59.564Z,9.77
2022-12-18T19:06:34.316Z,12.73
2022-12-18T19:08:08.533Z,13.02
2022-12-18T19:09:41.864Z,12.70
2022-12-18T19:11:36.554Z,12.88
2022-12-18T19:13:24.819Z,10.57
2022-12-18T19:14:58.015Z,11.27
2022-12-18T19:16:31.435Z,13.80
2022-12-18T19:18:05.189Z,12.02
2022-12-18T19:19:38.475Z,12.18
2022-12-18T19:21:12.663Z,12.35
2022-12-18T19:22:55.800Z,12.48
2022-12-18T19:24:29.310Z,14.98
2022-12-18T19:26:26.994Z,13.32
2022-12-18T19:27:56.082Z,11.48
2022-12-18T19:29:29.273Z,14.25
2022-12-18T19:31:05.662Z,11.98
2022-12-18T19:32:38.788Z,14.48
2022-12-18T19:34:13.054Z,11.90
2022-12-18T19:35:46.106Z,12.32
2022-12-18T19:37:19.530Z,14.45
2022-12-18T19:38:55.567Z,11.63
2022-12-18T19:40:28.849Z,13.95
2022-12-18T19:42:02.153Z,13.23
2022-12-18T19:43:37.624Z,12.02
2022-12-18T19:45:12.713Z,13.80
2022-12-18T19:46:47.059Z,12.75
2022-12-18T19:48:20.164Z,9.95
2022-12-18T19:49:53.261Z,9.90
2022-12-18T19:51:28.842Z,11.18
2022-12-18T19:53:01.984Z,8.65
2022-12-18T19:54:37.068Z,12.77
2022-12-18T19:56:13.569Z,13.27
2022-12-18T19:57:46.742Z,13.55
2022-12-18T19:59:19.859Z,14.05
2022-12-18T20:00:53.113Z,13.60
2022-12-18T20:02:26.383Z,14.00
2022-12-18T20:04:00.962Z,14.57
2022-12-18T20:05:34.864Z,12.23
2022-12-18T20:07:07.914Z,12.73
2022-12-18T20:08:41.684Z,9.38
2022-12-18T20:10:16.199Z,12.55
2022-12-18T20:11:52.559Z,14.18
2022-12-18T20:13:25.715Z,13.73
2022-12-18T20:15:00.802Z,12.82
2022-12-18T20:16:34.039Z,13.70
2022-12-18T20:18:07.333Z,13.07
2022-12-18T20:19:41.727Z,13.88
2022-12-18T20:21:14.843Z,11.45
2022-12-18T20:22:47.890Z,11.85
2022-12-18T20:24:21.109Z,14.52
2022-12-18T20:25:56.874Z,12.27
2022-12-18T20:27:29.975Z,13.73
2022-12-18T20:29:03.103Z,12.85
2022-12-18T20:30:36.183Z,15.10
2022-12-18T20:32:09.375Z,13.65
2022-12-18T20:33:43.588Z,14.73
2022-12-18T20:35:20.637Z,13.88
2022-12-18T20:36:54.270Z,11.70
2022-12-18T20:38:27.750Z,14.00
2022-12-18T20:40:01.246Z,13.23
2022-12-18T20:41:38.475Z,14.38
2022-12-18T20:43:16.843Z,12.07
2022-12-18T20:44:50.436Z,13.18
2022-12-18T20:46:24.525Z,10.25
2022-12-18T20:47:59.365Z,11.80
2022-12-18T20:49:32.513Z,14.00
2022-12-18T20:51:08.327Z,10.63
2022-12-18T20:52:41.434Z,11.20
2022-12-18T20:54:14.545Z,15.27
2022-12-18T20:55:47.679Z,12.70
2022-12-18T20:57:22.106Z,13.23
2022-12-18T20:58:58.055Z,13.63
2022-12-18T21:00:31.162Z,14.57
2022-12-18T21:02:04.428Z,12.80